MMMY 090640Z 00000KT 7SM OVC005 19/16 A2995 RMK 8/5// TWR VSBY= 090642

SPECI MMMY 090601Z 00000KT 8SM BKN010 19/16 A2995 RMK 8/500= 090602

MMMY 090540Z 00000KT 8SM BKN070 19/15 A2996 RMK SLP/// 5//// 9// 8/010= 090541

MMMY 090442Z 12004KT 8SM BKN070 18/16 A2998 RMK 8/070= 090443

MMMY 090341Z 12004KT 10SM SKC 18/14 A2998= 090342

MMMY 090240Z 14004KT 10SM SKC 20/15 A2998 RMK SLP/// 5//// 9//= 090240

MMMY 090140Z 12004KT 10SM SKC 19/16 A2996= 090141

MMMY 090040Z 14004KT 10SM FEW200 21/16 A2994 RMK 8/001= 090041

MMMY 082340Z 12006KT 12SM SCT200 22/16 A2993 RMK SLP/// 5//// 9// 8/008= 082340

MMMY 082240Z 11008KT 12SM SCT200 25/13 A2992 RMK 8/008= 082240

MMMY 082140Z 12009KT 12SM SCT200 26/13 A2993 RMK 8/008= 082140

MMMY 082040Z 11008KT 12SM BKN200 26/13 A2992 RMK SLP/// 5//// 9// 8/008= 082041

MMMY 081940Z 15005KT 12SM SCT200 25/12 A2994 RMK 8/008= 081940

MMMY 081840Z 10005KT 12SM SCT200 25/11 A2998 RMK 8/008= 081840

MMMY 081740Z 21004KT 12SM SCT200 23/11 A3001 RMK SLP/// 5//// 9// 8/008= 081740

MMMY 081640Z 33003KT 12SM SCT200 21/10 A3004 RMK 8/008= 081640

MMMY 081542Z 32006KT 15SM FEW200 18/10 A3004 RMK 8/008 S= 081542

MMMY 081442Z 29007KT 12SM FEW200 15/09 A3002 RMK SLP/// 5//// 9// 8/008= 081442

MMMY 081340Z 33005KT 12SM SKC 11/08 A3000 RMK ISOL CI= 081340

MMMY 081244Z 30005KT 10SM SKC 12/08 A2999= 081245

MMMY 081141Z 30006KT 10SM SKC 11/08 A2998 RMK SLP/// 5//// 9//= 081141

MMMY 081046Z 30005KT 10SM SKC 11/08 A2997= 081047

MMMY 080941Z 29006KT 10SM SKC 10/08 A2998= 080941

MMMY 080842Z 30006KT 10SM SKC 10/08 A2998 RMK SLP/// 5//// 9//= 080843

MMMY 080740Z 32004KT 10SM SKC 11/08 A2999= 080741

MMMY 080640Z 33005KT 10SM SKC 13/09 A2999= 080640

MMMY 080544Z 00000KT 10SM SKC 14/09 A3000 RMK SLP/// 5//// 9//= 080544

MMMY 080445Z 00000KT 10SM SKC 16/09 A3001= 080446

MMMY 080341Z 00000KT 10SM SKC 16/09 A2999= 080342

MMMY 080240Z 00000KT 6SM SKC 16/09 A2998 RMK SLP/// 5//// 9//= 080241

MMMY 080140Z 00000KT 6SM FEW200 17/09 A2996 RMK 8/002= 080140

MMMY 080040Z 11003KT 6SM FEW200 16/00 A2994 RMK 8/008= 080040

MMMY 072340Z 08003KT 10SM SCT200 19/10 A2992 RMK SLP/// 5//// 9// 8/008= 072340

MMMY 072241Z 12007KT 8SM BKN200 21/09 A2991 RMK 8/008 RTS= 072242

MMMY 072140Z 13008KT 8SM BKN200 21/09 A2991 RMK 8/008= 072141

MMMY 072040Z 11008KT 10SM BKN200 21/09 A2993 RMK SLP/// 5//// 9// 8/008= 072040

MMMY 071940Z 12005KT 8SM BKN200 20/08 A2996 RMK 8/008= 071941

MMMY 071840Z 12006KT 8SM BKN200 20/07 A2999 RMK 8/008= 071841

MMMY 071740Z 17005KT 7SM BKN200 19/05 A3004 RMK SLP/// 5//// 9// 8/008 HZY= 071742

MMMY 071640Z 00000KT 7SM BKN200 18/03 A3007 RMK 8/008 HZY= 071641

MMMY 071540Z 00000KT 7SM FEW035 SCT200 16/01 A3010 RMK 8/501 HZY= 071541

MMMY 071440Z 00000KT 8SM BKN035 15/01 A3009 RMK SLP/// 5//// 9// 8/500= 071440

MMMY 071341Z 00000KT 8SM OVC035 14/01 A3009 RMK 8/5//= 071341

MMMY 071243Z 00000KT 7SM BKN070 14/00 A3008 RMK 8/010= 071243

MMMY 071142Z 00000KT 7SM BKN070 15/01 A3007 RMK SLP/// 5//// 9// 8/070= 071143

MMMY 071041Z 27004KT 7SM BKN070 15/02 A3008 RMK 8/070= 071042

MMMY 070942Z 00000KT 6SM BKN070 15/01 A3009 RMK 8/070= 070942

MMMY 070841Z 00000KT 6SM BKN070 15/01 A3010 RMK SLP/// 5//// 9// 8/070= 070842

MMMY 070740Z 29005KT 6SM BKN070 16/00 A3010 RMK 8/070= 070740

MMMY 070640Z 32009KT 6SM BKN070 16/01 A3011 RMK 8/070= 070641